createdAt,value
2022-08-29T00:04:55.325Z,18.40
2022-08-29T00:10:00.591Z,18.40
2022-08-29T00:15:05.529Z,18.30
2022-08-29T00:20:11.646Z,18.30
2022-08-29T00:25:17.201Z,18.20
2022-08-29T00:30:22.593Z,18.20
2022-08-29T00:35:29.858Z,18.20
2022-08-29T00:40:38.778Z,18.10
2022-08-29T00:45:47.881Z,18.10
2022-08-29T00:50:56.006Z,18.00
2022-08-29T00:56:01.931Z,18.00
2022-08-29T01:01:05.989Z,18.00
2022-08-29T01:06:10.535Z,17.90
2022-08-29T01:11:36.636Z,17.90
2022-08-29T01:16:41.014Z,17.80
2022-08-29T01:21:51.232Z,17.80
2022-08-29T01:26:56.867Z,17.80
2022-08-29T01:32:00.644Z,17.70
2022-08-29T01:37:07.010Z,17.70
2022-08-29T01:42:14.191Z,17.70
2022-08-29T01:47:18.403Z,17.70
2022-08-29T01:52:23.123Z,17.70
2022-08-29T01:57:28.366Z,17.60
2022-08-29T02:02:32.854Z,17.60
2022-08-29T02:07:36.748Z,17.60
2022-08-29T02:12:43.826Z,17.50
2022-08-29T02:17:48.549Z,17.50
2022-08-29T02:22:52.324Z,17.50
2022-08-29T02:27:59.772Z,17.50
2022-08-29T02:33:04.447Z,17.40
2022-08-29T02:38:10.232Z,17.40
2022-08-29T02:43:16.699Z,17.40
2022-08-29T02:48:20.469Z,17.40
2022-08-29T02:53:28.921Z,17.30
2022-08-29T02:58:34.252Z,17.30
2022-08-29T03:03:38.548Z,17.30
2022-08-29T03:08:42.507Z,17.30
2022-08-29T03:13:47.760Z,17.30
2022-08-29T03:18:51.542Z,17.20
2022-08-29T03:23:56.482Z,17.20
2022-08-29T03:29:01.709Z,17.20
2022-08-29T03:34:06.011Z,17.20
2022-08-29T03:39:09.980Z,17.10
2022-08-29T03:44:15.144Z,17.10
2022-08-29T03:49:18.829Z,17.10
2022-08-29T03:54:22.568Z,17.00
2022-08-29T03:59:27.589Z,17.00
2022-08-29T04:04:48.680Z,17.00
2022-08-29T04:09:52.326Z,16.90
2022-08-29T04:14:57.313Z,16.90
2022-08-29T04:20:00.988Z,16.90
2022-08-29T04:25:05.377Z,16.90
2022-08-29T04:30:14.553Z,16.80
2022-08-29T04:35:18.615Z,16.80
2022-08-29T04:40:23.406Z,16.80
2022-08-29T04:45:29.005Z,16.80
2022-08-29T04:50:32.760Z,16.70
2022-08-29T04:55:36.521Z,16.70
2022-08-29T05:00:41.537Z,16.70
2022-08-29T05:05:45.237Z,16.70
2022-08-29T05:10:48.896Z,16.70
2022-08-29T05:15:53.956Z,16.70
2022-08-29T05:20:57.600Z,16.70
2022-08-29T05:26:03.372Z,16.70
2022-08-29T05:31:13.785Z,16.70
2022-08-29T05:36:17.574Z,16.70
2022-08-29T05:41:21.279Z,16.70
2022-08-29T05:46:26.364Z,16.70
2022-08-29T05:51:37.221Z,16.70
2022-08-29T05:56:43.024Z,16.70
2022-08-29T06:01:48.070Z,16.70
2022-08-29T06:06:51.869Z,16.70
2022-08-29T06:11:57.665Z,16.70
2022-08-29T06:17:03.050Z,16.70
2022-08-29T06:22:10.011Z,16.70
2022-08-29T06:27:14.546Z,16.80
2022-08-29T06:32:19.567Z,16.80
2022-08-29T06:37:23.283Z,16.80
2022-08-29T06:42:28.638Z,16.80
2022-08-29T06:47:34.480Z,16.90
2022-08-29T06:52:38.130Z,16.90
2022-08-29T06:57:45.385Z,17.00
2022-08-29T07:02:51.780Z,17.00
2022-08-29T07:07:56.606Z,17.10
2022-08-29T07:13:00.713Z,17.10
2022-08-29T07:18:07.106Z,17.20
2022-08-29T07:23:11.492Z,17.20
2022-08-29T07:28:15.961Z,17.30
2022-08-29T07:33:21.775Z,17.40
2022-08-29T07:38:25.664Z,17.40
2022-08-29T07:43:29.748Z,17.50
2022-08-29T07:48:35.117Z,17.50
2022-08-29T07:53:38.925Z,17.50
2022-08-29T07:58:43.449Z,17.60
2022-08-29T08:03:48.876Z,17.70
2022-08-29T08:08:53.326Z,17.70
2022-08-29T08:13:58.301Z,17.80
2022-08-29T08:19:04.668Z,17.90
2022-08-29T08:24:09.565Z,18.00
2022-08-29T08:29:13.696Z,18.10
2022-08-29T08:34:18.932Z,18.10
2022-08-29T08:39:22.611Z,18.20
2022-08-29T08:44:49.532Z,18.20
2022-08-29T08:49:59.645Z,18.30
2022-08-29T08:55:12.515Z,18.30
2022-08-29T09:00:16.566Z,18.40
2022-08-29T09:05:35.865Z,18.50
2022-08-29T09:10:47.574Z,18.60
2022-08-29T09:15:55.913Z,18.80
2022-08-29T09:21:06.665Z,19.00
2022-08-29T09:26:16.444Z,19.40
2022-08-29T09:31:23.750Z,19.50
2022-08-29T09:36:47.458Z,19.60
2022-08-29T09:41:54.539Z,19.80
2022-08-29T09:47:11.249Z,20.20
2022-08-29T09:52:17.018Z,20.70
2022-08-29T09:57:24.095Z,21.30
2022-08-29T10:02:31.181Z,21.70
2022-08-29T10:07:47.488Z,21.80
2022-08-29T10:12:58.502Z,21.80
2022-08-29T10:18:23.891Z,21.90
2022-08-29T10:23:38.346Z,21.90
2022-08-29T10:28:51.603Z,21.80
2022-08-29T10:34:17.963Z,21.80
2022-08-29T10:39:34.826Z,22.10
2022-08-29T10:44:50.122Z,22.60
2022-08-29T10:50:21.761Z,23.20
2022-08-29T10:55:45.133Z,23.70
2022-08-29T11:00:55.055Z,24.10
2022-08-29T11:06:04.379Z,24.50
2022-08-29T11:11:09.817Z,24.80
2022-08-29T11:16:19.806Z,25.00
2022-08-29T11:21:31.676Z,25.30
2022-08-29T11:26:49.748Z,25.50
2022-08-29T11:32:01.548Z,25.70
2022-08-29T11:37:33.667Z,25.70
2022-08-29T11:42:56.989Z,25.90
2022-08-29T11:48:03.310Z,25.90
2022-08-29T11:53:11.616Z,26.00
2022-08-29T11:58:48.031Z,26.10
2022-08-29T12:03:52.175Z,26.20
2022-08-29T12:09:05.240Z,26.20
2022-08-29T12:14:35.555Z,26.30
2022-08-29T12:20:16.428Z,26.40
2022-08-29T12:25:45.744Z,26.20
2022-08-29T12:30:56.866Z,26.10
2022-08-29T12:36:24.922Z,26.00
2022-08-29T12:41:41.360Z,25.90
2022-08-29T12:46:47.396Z,25.90
2022-08-29T12:51:55.743Z,25.90
2022-08-29T12:57:00.343Z,25.80
2022-08-29T13:02:06.901Z,25.70
2022-08-29T13:07:16.938Z,25.60
2022-08-29T13:12:25.074Z,25.50
2022-08-29T13:17:34.807Z,25.40
2022-08-29T13:22:38.955Z,25.30
2022-08-29T13:27:42.806Z,25.30
2022-08-29T13:33:14.179Z,25.20
2022-08-29T13:38:31.598Z,25.10
2022-08-29T13:44:14.060Z,24.90
2022-08-29T13:49:29.490Z,24.80
2022-08-29T13:54:36.583Z,24.70
2022-08-29T13:59:41.137Z,24.60
2022-08-29T14:04:48.867Z,24.50
2022-08-29T14:09:53.202Z,24.40
2022-08-29T14:14:57.212Z,24.30
2022-08-29T14:20:02.274Z,24.20
2022-08-29T14:25:07.996Z,24.10
2022-08-29T14:30:14.467Z,24.00
2022-08-29T14:35:26.400Z,24.00
2022-08-29T14:40:36.606Z,23.90
2022-08-29T14:45:41.741Z,23.80
2022-08-29T14:50:48.902Z,23.70
2022-08-29T14:55:52.757Z,23.60
2022-08-29T15:01:00.157Z,23.60
2022-08-29T15:06:07.404Z,23.50
2022-08-29T15:11:11.918Z,23.50
2022-08-29T15:16:15.784Z,23.50
2022-08-29T15:21:21.014Z,23.40
2022-08-29T15:26:24.839Z,23.40
2022-08-29T15:31:30.053Z,23.40
2022-08-29T15:36:37.025Z,23.40
2022-08-29T15:41:41.104Z,23.40
2022-08-29T15:46:50.508Z,23.40
2022-08-29T15:51:57.403Z,23.40
2022-08-29T15:57:01.643Z,23.40
2022-08-29T16:02:05.879Z,23.30
2022-08-29T16:07:12.890Z,23.30
2022-08-29T16:12:16.870Z,23.30
2022-08-29T16:17:20.715Z,23.30
2022-08-29T16:22:28.047Z,23.20
2022-08-29T16:27:32.445Z,23.20
2022-08-29T16:32:36.899Z,23.20
2022-08-29T16:37:42.572Z,23.10
2022-08-29T16:42:55.446Z,23.00
2022-08-29T16:48:01.061Z,23.00
2022-08-29T16:53:07.421Z,23.00
2022-08-29T16:58:28.733Z,22.90
2022-08-29T17:03:33.744Z,22.80
2022-08-29T17:08:39.803Z,22.80
2022-08-29T17:13:43.175Z,22.70
2022-08-29T17:18:50.785Z,22.70
2022-08-29T17:23:59.376Z,22.70
2022-08-29T17:29:03.914Z,22.60
2022-08-29T17:34:09.690Z,22.50
2022-08-29T17:39:15.204Z,22.50
2022-08-29T17:44:19.610Z,22.50
2022-08-29T17:49:24.527Z,22.50
2022-08-29T17:54:32.962Z,22.40
2022-08-29T17:59:37.971Z,22.30
2022-08-29T18:04:41.945Z,22.30
2022-08-29T18:09:47.565Z,22.30
2022-08-29T18:14:52.539Z,22.20
2022-08-29T18:19:57.172Z,22.20
2022-08-29T18:25:02.760Z,22.10
2022-08-29T18:30:07.780Z,22.10
2022-08-29T18:35:12.157Z,22.00
2022-08-29T18:40:17.341Z,22.00
2022-08-29T18:45:21.205Z,21.90
2022-08-29T18:50:37.520Z,21.90
2022-08-29T18:55:50.502Z,21.80
2022-08-29T19:00:57.026Z,21.80
2022-08-29T19:06:01.458Z,21.70
2022-08-29T19:11:07.457Z,21.70
2022-08-29T19:16:11.441Z,21.60
2022-08-29T19:21:15.380Z,21.60
2022-08-29T19:26:23.062Z,21.50
2022-08-29T19:31:27.617Z,21.50
2022-08-29T19:36:31.469Z,21.50
2022-08-29T19:41:37.094Z,21.50
2022-08-29T19:46:40.796Z,21.40
2022-08-29T19:51:44.708Z,21.40
2022-08-29T19:56:49.776Z,21.40
2022-08-29T20:01:53.549Z,21.30
2022-08-29T20:07:00.108Z,21.30
2022-08-29T20:12:12.860Z,21.30
2022-08-29T20:17:16.495Z,21.20
2022-08-29T20:22:23.824Z,21.20
2022-08-29T20:27:34.288Z,21.10
2022-08-29T20:32:38.660Z,21.10
2022-08-29T20:37:42.666Z,21.10
2022-08-29T20:42:53.930Z,21.00
2022-08-29T20:47:59.267Z,21.00
2022-08-29T20:53:08.309Z,21.00
2022-08-29T20:58:18.999Z,20.90
2022-08-29T21:03:40.338Z,20.90
2022-08-29T21:08:44.535Z,20.80
2022-08-29T21:13:53.323Z,20.80
2022-08-29T21:18:57.591Z,20.80
2022-08-29T21:24:01.263Z,20.80
2022-08-29T21:29:09.320Z,20.70
2022-08-29T21:34:14.382Z,20.70
2022-08-29T21:39:27.969Z,20.60
2022-08-29T21:44:34.188Z,20.60
2022-08-29T21:49:39.318Z,20.50
2022-08-29T21:54:43.016Z,20.50
2022-08-29T21:59:48.516Z,20.50
2022-08-29T22:04:52.205Z,20.50
2022-08-29T22:09:55.956Z,20.40
2022-08-29T22:15:18.500Z,20.40
2022-08-29T22:20:22.436Z,20.30
2022-08-29T22:25:26.160Z,20.30
2022-08-29T22:30:32.456Z,20.30
2022-08-29T22:35:37.342Z,20.20
2022-08-29T22:40:41.382Z,20.20
2022-08-29T22:45:46.501Z,20.20
2022-08-29T22:50:58.105Z,20.10
2022-08-29T22:56:02.391Z,20.10
2022-08-29T23:01:08.078Z,20.10
2022-08-29T23:06:11.863Z,20.00
2022-08-29T23:11:16.287Z,20.00
2022-08-29T23:16:21.868Z,20.00
2022-08-29T23:21:25.681Z,19.90
2022-08-29T23:26:29.510Z,19.90
2022-08-29T23:31:34.701Z,19.90
2022-08-29T23:36:38.690Z,19.80
2022-08-29T23:41:42.459Z,19.80
2022-08-29T23:46:47.601Z,19.70
2022-08-29T23:51:51.590Z,19.70
2022-08-29T23:56:55.543Z,19.60
